createdAt,value
2023-09-21T00:02:12.416Z,77.70
2023-09-21T00:04:58.036Z,77.20
2023-09-21T00:07:44.388Z,76.30
2023-09-21T00:10:30.432Z,76.30
2023-09-21T00:13:16.276Z,75.90
2023-09-21T00:16:03.205Z,76.70
2023-09-21T00:18:49.726Z,76.50
2023-09-21T00:21:35.629Z,78.00
2023-09-21T00:24:20.997Z,76.90
2023-09-21T00:27:06.620Z,76.80
2023-09-21T00:29:52.446Z,77.80
2023-09-21T00:32:39.462Z,77.80
2023-09-21T00:35:25.202Z,77.70
2023-09-21T00:38:11.847Z,78.30
2023-09-21T00:41:01.981Z,79.00
2023-09-21T00:43:48.345Z,78.80
2023-09-21T00:46:34.987Z,78.40
2023-09-21T00:49:20.664Z,77.30
2023-09-21T00:52:06.326Z,78.20
2023-09-21T00:54:51.797Z,78.60
2023-09-21T00:57:37.407Z,78.30
2023-09-21T01:00:24.615Z,79.70
2023-09-21T01:03:10.723Z,78.30
2023-09-21T01:05:59.445Z,79.60
2023-09-21T01:08:45.238Z,79.80
2023-09-21T01:11:31.710Z,79.30
2023-09-21T01:14:17.717Z,78.80
2023-09-21T01:17:03.281Z,79.30
2023-09-21T01:19:48.809Z,79.90
2023-09-21T01:22:34.319Z,79.30
2023-09-21T01:25:19.910Z,78.70
2023-09-21T01:28:06.514Z,77.40
2023-09-21T01:30:52.230Z,77.90
2023-09-21T01:33:38.063Z,77.60
2023-09-21T01:36:24.407Z,77.10
2023-09-21T01:39:10.088Z,78.90
2023-09-21T01:41:56.116Z,78.50
2023-09-21T01:44:42.099Z,78.30
2023-09-21T01:47:27.581Z,79.20
2023-09-21T01:50:13.279Z,78.40
2023-09-21T01:52:58.933Z,78.00
2023-09-21T01:55:46.009Z,77.40
2023-09-21T01:58:31.775Z,77.20
2023-09-21T02:01:17.667Z,79.30
2023-09-21T02:04:03.737Z,79.50
2023-09-21T02:06:49.738Z,79.50
2023-09-21T02:09:35.229Z,79.90
2023-09-21T02:12:21.384Z,79.50
2023-09-21T02:15:07.898Z,80.50
2023-09-21T02:17:57.497Z,80.50
2023-09-21T02:20:43.447Z,79.70
2023-09-21T02:23:29.354Z,80.10
2023-09-21T02:26:14.723Z,79.00
2023-09-21T02:29:00.312Z,77.60
2023-09-21T02:31:45.934Z,78.40
2023-09-21T02:34:31.666Z,77.80
2023-09-21T02:37:17.282Z,77.50
2023-09-21T02:40:02.923Z,78.00
2023-09-21T02:42:56.514Z,78.00
2023-09-21T02:45:42.593Z,78.20
2023-09-21T02:48:28.266Z,78.80
2023-09-21T02:51:14.569Z,77.60
2023-09-21T02:54:00.488Z,79.10
2023-09-21T02:56:45.974Z,78.70
2023-09-21T02:59:31.369Z,79.30
2023-09-21T03:02:16.942Z,80.00
2023-09-21T03:05:02.375Z,80.30
2023-09-21T03:07:48.548Z,81.70
2023-09-21T03:10:34.289Z,80.40
2023-09-21T03:13:21.591Z,79.60
2023-09-21T03:16:08.707Z,81.50
2023-09-21T03:18:54.358Z,80.70
2023-09-21T03:21:40.341Z,80.00
2023-09-21T03:24:25.953Z,80.90
2023-09-21T03:27:11.491Z,79.60
2023-09-21T03:29:59.544Z,80.60
2023-09-21T03:32:45.060Z,81.00
2023-09-21T03:35:30.434Z,81.00
2023-09-21T03:38:16.359Z,79.40
2023-09-21T03:41:02.013Z,79.30
2023-09-21T03:43:48.251Z,79.20
2023-09-21T03:46:34.068Z,78.80
2023-09-21T03:49:19.460Z,78.00
2023-09-21T03:52:05.605Z,78.00
2023-09-21T03:54:51.352Z,78.10
2023-09-21T03:57:38.460Z,78.20
2023-09-21T04:00:25.107Z,79.90
2023-09-21T04:03:12.720Z,78.60
2023-09-21T04:06:02.927Z,79.10
2023-09-21T04:08:48.832Z,80.50
2023-09-21T04:11:41.019Z,79.60
2023-09-21T04:14:27.425Z,80.50
2023-09-21T04:17:12.946Z,79.20
2023-09-21T04:19:58.604Z,80.50
2023-09-21T04:22:44.726Z,80.50
2023-09-21T04:25:30.345Z,80.80
2023-09-21T04:28:15.997Z,78.40
2023-09-21T04:31:02.663Z,79.30
2023-09-21T04:33:48.626Z,81.10
2023-09-21T04:36:34.656Z,80.60
2023-09-21T04:39:20.391Z,80.60
2023-09-21T04:42:06.312Z,80.10
2023-09-21T04:44:52.395Z,79.70
2023-09-21T04:47:40.381Z,80.30
2023-09-21T04:50:26.415Z,81.80
2023-09-21T04:53:15.963Z,81.20
2023-09-21T04:56:09.300Z,81.40
2023-09-21T04:58:55.352Z,85.20
2023-09-21T05:01:41.410Z,81.20
2023-09-21T05:04:27.599Z,81.30
2023-09-21T05:07:14.068Z,80.40
2023-09-21T05:09:59.743Z,80.80
2023-09-21T05:12:45.451Z,80.40
2023-09-21T05:15:31.279Z,79.30
2023-09-21T05:18:17.369Z,78.90
2023-09-21T05:21:03.381Z,79.70
2023-09-21T05:23:48.834Z,80.60
2023-09-21T05:26:34.716Z,79.60
2023-09-21T05:29:22.138Z,78.60
2023-09-21T05:32:07.874Z,77.60
2023-09-21T05:34:53.888Z,78.80
2023-09-21T05:37:39.463Z,78.80
2023-09-21T05:40:25.380Z,77.60
2023-09-21T05:43:11.073Z,76.90
2023-09-21T05:45:57.626Z,76.70
2023-09-21T05:48:43.475Z,76.20
2023-09-21T05:51:29.152Z,76.60
2023-09-21T05:54:14.593Z,77.00
2023-09-21T05:57:02.683Z,77.10
2023-09-21T05:59:48.501Z,76.20
2023-09-21T06:02:34.654Z,76.30
2023-09-21T06:05:20.369Z,75.90
2023-09-21T06:08:06.205Z,75.30
2023-09-21T06:10:52.094Z,75.40
2023-09-21T06:13:37.828Z,76.40
2023-09-21T06:16:23.924Z,78.30
2023-09-21T06:19:15.692Z,78.70
2023-09-21T06:22:02.797Z,78.40
2023-09-21T06:24:48.311Z,78.00
2023-09-21T06:27:34.787Z,78.10
2023-09-21T06:30:20.984Z,77.80
2023-09-21T06:33:06.892Z,77.70
2023-09-21T06:35:53.269Z,77.10
2023-09-21T06:38:38.968Z,77.10
2023-09-21T06:41:28.363Z,76.40
2023-09-21T06:44:14.782Z,76.60
2023-09-21T06:47:00.938Z,76.40
2023-09-21T06:49:46.790Z,75.70
2023-09-21T06:52:32.297Z,75.70
2023-09-21T06:55:17.959Z,76.40
2023-09-21T06:58:04.299Z,75.90
2023-09-21T07:00:50.094Z,75.40
2023-09-21T07:03:35.554Z,75.70
2023-09-21T07:06:21.734Z,76.60
2023-09-21T07:09:07.719Z,75.80
2023-09-21T07:11:53.594Z,75.90
2023-09-21T07:14:40.002Z,74.40
2023-09-21T07:17:25.831Z,74.60
2023-09-21T07:20:12.829Z,74.90
2023-09-21T07:22:58.781Z,75.00
2023-09-21T07:25:44.567Z,74.30
2023-09-21T07:28:33.187Z,74.90
2023-09-21T07:31:18.877Z,74.10
2023-09-21T07:34:08.278Z,73.80
2023-09-21T07:36:54.055Z,73.00
2023-09-21T07:39:39.559Z,72.30
2023-09-21T07:42:26.023Z,71.90
2023-09-21T07:45:12.539Z,72.30
2023-09-21T07:47:58.942Z,72.10
2023-09-21T07:50:45.504Z,72.10
2023-09-21T07:53:31.230Z,72.60
2023-09-21T07:56:16.695Z,72.30
2023-09-21T07:59:02.099Z,72.00
2023-09-21T08:01:47.687Z,72.10
2023-09-21T08:04:33.427Z,71.80
2023-09-21T08:07:19.440Z,71.00
2023-09-21T08:10:06.936Z,71.00
2023-09-21T08:12:52.493Z,70.80
2023-09-21T08:15:38.241Z,70.80
2023-09-21T08:18:25.837Z,70.60
2023-09-21T08:21:12.072Z,70.90
2023-09-21T08:23:57.863Z,70.70
2023-09-21T08:26:43.338Z,70.50
2023-09-21T08:29:29.112Z,70.30
2023-09-21T08:32:15.123Z,70.30
2023-09-21T08:35:01.636Z,69.80
2023-09-21T08:37:47.376Z,69.40
2023-09-21T08:40:35.443Z,69.30
2023-09-21T08:43:24.899Z,69.10
2023-09-21T08:46:11.174Z,69.20
2023-09-21T08:49:01.818Z,69.00
2023-09-21T08:51:48.623Z,68.20
2023-09-21T08:54:37.082Z,68.10
2023-09-21T08:57:23.669Z,68.00
2023-09-21T09:00:10.492Z,68.60
2023-09-21T09:02:56.687Z,67.50
2023-09-21T09:05:43.220Z,67.50
2023-09-21T09:08:30.025Z,67.40
2023-09-21T09:11:40.212Z,67.10
2023-09-21T09:14:26.460Z,67.50
2023-09-21T09:17:14.820Z,66.20
2023-09-21T09:20:01.059Z,66.60
2023-09-21T09:22:50.959Z,66.40
2023-09-21T09:25:37.978Z,66.20
2023-09-21T09:28:24.092Z,66.10
2023-09-21T09:31:12.565Z,66.40
2023-09-21T09:33:58.437Z,65.70
2023-09-21T09:36:48.330Z,65.20
2023-09-21T09:39:34.226Z,64.80
2023-09-21T09:42:20.766Z,64.50
2023-09-21T09:45:18.423Z,64.60
2023-09-21T09:48:13.147Z,64.90
2023-09-21T09:51:07.598Z,66.20
2023-09-21T09:53:55.166Z,66.90
2023-09-21T09:56:42.085Z,65.90
2023-09-21T09:59:28.701Z,64.80
2023-09-21T10:02:16.617Z,62.30
2023-09-21T10:05:03.076Z,63.30
2023-09-21T10:07:51.545Z,65.30
2023-09-21T10:10:51.128Z,67.10
2023-09-21T10:13:50.752Z,68.60
2023-09-21T10:16:37.022Z,69.90
2023-09-21T10:19:34.726Z,70.30
2023-09-21T10:22:32.890Z,67.40
2023-09-21T10:25:39.451Z,67.10
2023-09-21T10:28:33.947Z,58.60
2023-09-21T10:31:27.360Z,69.10
2023-09-21T10:34:19.895Z,71.30
2023-09-21T10:37:07.131Z,71.20
2023-09-21T10:40:01.006Z,72.50
2023-09-21T10:42:46.914Z,72.80
2023-09-21T10:46:01.406Z,73.90
2023-09-21T10:48:48.684Z,66.00
2023-09-21T10:51:36.684Z,76.90
2023-09-21T10:54:22.802Z,77.00
2023-09-21T10:57:08.236Z,76.20
2023-09-21T11:00:06.020Z,75.20
2023-09-21T11:02:57.891Z,75.20
2023-09-21T11:05:44.887Z,74.70
2023-09-21T11:08:30.609Z,73.90
2023-09-21T11:11:18.084Z,73.90
2023-09-21T11:14:03.811Z,74.50
2023-09-21T11:16:49.655Z,73.60
2023-09-21T11:19:35.524Z,73.00
2023-09-21T11:22:21.324Z,73.20
2023-09-21T11:25:09.732Z,72.90
2023-09-21T11:27:59.296Z,72.30
2023-09-21T11:30:46.543Z,72.00
2023-09-21T11:33:58.650Z,71.60
2023-09-21T11:36:44.776Z,69.50
2023-09-21T11:39:30.831Z,70.10
2023-09-21T11:42:20.735Z,70.40
2023-09-21T11:45:07.617Z,69.80
2023-09-21T11:48:00.695Z,69.60
2023-09-21T11:50:46.712Z,69.50
2023-09-21T11:53:32.326Z,69.50
2023-09-21T11:56:17.967Z,69.40
2023-09-21T11:59:08.110Z,69.50
2023-09-21T12:01:54.087Z,69.40
2023-09-21T12:04:41.900Z,69.00
2023-09-21T12:07:27.513Z,68.80
2023-09-21T12:10:13.077Z,68.50
2023-09-21T12:12:58.844Z,68.20
2023-09-21T12:15:44.961Z,67.90
2023-09-21T12:18:31.930Z,67.60
2023-09-21T12:21:17.798Z,67.30
2023-09-21T12:24:03.637Z,67.10
2023-09-21T12:26:49.499Z,67.30
2023-09-21T12:29:35.633Z,67.60
2023-09-21T12:32:21.668Z,67.50
2023-09-21T12:35:14.605Z,67.60
2023-09-21T12:38:00.292Z,67.60
2023-09-21T12:40:45.736Z,67.80
2023-09-21T12:43:31.282Z,68.00
2023-09-21T12:46:16.782Z,68.10
2023-09-21T12:49:02.411Z,68.00
2023-09-21T12:51:48.954Z,67.90
2023-09-21T12:54:34.879Z,68.20
2023-09-21T12:57:20.993Z,68.30
2023-09-21T13:00:12.386Z,68.10
2023-09-21T13:02:58.091Z,67.90
2023-09-21T13:05:44.664Z,67.90
2023-09-21T13:08:30.670Z,67.90
2023-09-21T13:11:16.355Z,68.00
2023-09-21T13:14:02.146Z,68.00
2023-09-21T13:16:48.075Z,67.60
2023-09-21T13:19:33.602Z,67.60
2023-09-21T13:22:19.874Z,67.30
2023-09-21T13:25:06.167Z,67.60
2023-09-21T13:27:51.618Z,67.70
2023-09-21T13:30:37.374Z,67.70
2023-09-21T13:33:24.975Z,67.50
2023-09-21T13:36:10.611Z,67.50
2023-09-21T13:38:56.447Z,67.70
2023-09-21T13:41:43.672Z,67.40
2023-09-21T13:44:31.743Z,67.30
2023-09-21T13:47:17.608Z,67.40
2023-09-21T13:50:03.689Z,67.40
2023-09-21T13:52:49.246Z,67.50
2023-09-21T13:55:34.732Z,67.60
2023-09-21T13:58:20.467Z,67.70
2023-09-21T14:01:06.225Z,67.70
2023-09-21T14:03:52.536Z,67.80
2023-09-21T14:06:38.550Z,67.80
2023-09-21T14:09:27.655Z,67.90
2023-09-21T14:12:13.550Z,67.80
2023-09-21T14:14:59.714Z,67.80
2023-09-21T14:17:45.563Z,67.80
2023-09-21T14:20:31.683Z,67.90
2023-09-21T14:23:17.600Z,67.90
2023-09-21T14:26:04.355Z,68.00
2023-09-21T14:28:50.108Z,68.00
2023-09-21T14:31:35.838Z,68.00
2023-09-21T14:34:21.792Z,68.00
2023-09-21T14:37:07.194Z,68.10
2023-09-21T14:39:54.403Z,67.90
2023-09-21T14:42:40.281Z,67.90
2023-09-21T14:45:26.037Z,67.90
2023-09-21T14:48:12.236Z,67.80
2023-09-21T14:50:57.904Z,68.10
2023-09-21T14:53:49.625Z,68.00
2023-09-21T14:56:35.294Z,68.00
2023-09-21T14:59:20.824Z,68.00
2023-09-21T15:02:10.977Z,68.00
2023-09-21T15:04:57.032Z,68.20
2023-09-21T15:07:43.538Z,68.30
2023-09-21T15:10:29.770Z,68.40
2023-09-21T15:13:16.609Z,68.30
2023-09-21T15:16:02.554Z,68.30
2023-09-21T15:18:48.289Z,68.60
2023-09-21T15:21:34.005Z,68.60
2023-09-21T15:24:20.770Z,68.70
2023-09-21T15:27:06.571Z,68.60
2023-09-21T15:29:58.483Z,68.80
2023-09-21T15:32:44.200Z,68.90
2023-09-21T15:35:30.541Z,68.90
2023-09-21T15:38:16.435Z,68.90
2023-09-21T15:41:04.509Z,68.90
2023-09-21T15:43:51.181Z,68.90
2023-09-21T15:46:37.549Z,69.10
2023-09-21T15:49:22.966Z,69.20
2023-09-21T15:52:08.465Z,69.50
2023-09-21T15:54:54.166Z,69.30
2023-09-21T15:57:40.414Z,69.50
2023-09-21T16:00:26.682Z,69.40
2023-09-21T16:03:12.575Z,69.50
2023-09-21T16:06:01.790Z,70.40
2023-09-21T16:08:48.137Z,70.00
2023-09-21T16:11:35.800Z,70.00
2023-09-21T16:14:21.238Z,70.30
2023-09-21T16:17:06.652Z,70.20
2023-09-21T16:19:52.150Z,70.10
2023-09-21T16:22:38.618Z,70.20
2023-09-21T16:25:25.616Z,70.30
2023-09-21T16:28:11.492Z,70.80
2023-09-21T16:31:00.333Z,70.90
2023-09-21T16:33:46.174Z,70.70
2023-09-21T16:36:32.796Z,71.00
2023-09-21T16:39:18.698Z,71.10
2023-09-21T16:42:04.348Z,71.00
2023-09-21T16:44:52.761Z,71.20
2023-09-21T16:47:38.509Z,70.90
2023-09-21T16:50:24.497Z,71.20
2023-09-21T16:53:10.506Z,71.00
2023-09-21T16:55:56.838Z,71.20
2023-09-21T16:58:42.760Z,71.30
2023-09-21T17:01:28.530Z,71.30
2023-09-21T17:04:14.797Z,71.50
2023-09-21T17:07:00.610Z,71.40
2023-09-21T17:09:46.195Z,71.30
2023-09-21T17:12:32.672Z,71.40
2023-09-21T17:16:39.627Z,71.70
2023-09-21T17:19:25.327Z,76.30
2023-09-21T17:22:14.024Z,72.20
2023-09-21T17:24:59.675Z,72.30
2023-09-21T17:27:45.377Z,72.40
2023-09-21T17:30:31.313Z,72.40
2023-09-21T17:33:17.163Z,72.40
2023-09-21T17:36:03.263Z,72.40
2023-09-21T17:38:49.653Z,72.20
2023-09-21T17:41:35.395Z,72.50
2023-09-21T17:44:21.203Z,72.30
2023-09-21T17:47:07.064Z,72.60
2023-09-21T17:49:53.158Z,72.30
2023-09-21T17:52:39.236Z,72.30
2023-09-21T17:55:27.820Z,71.90
2023-09-21T17:58:13.616Z,71.90
2023-09-21T18:00:59.686Z,72.00
2023-09-21T18:03:45.949Z,72.10
2023-09-21T18:06:32.000Z,72.30
2023-09-21T18:09:18.060Z,71.90
2023-09-21T18:12:04.590Z,72.60
2023-09-21T18:14:50.501Z,72.10
2023-09-21T18:17:38.007Z,71.90
2023-09-21T18:20:26.572Z,71.90
2023-09-21T18:23:12.207Z,71.70
2023-09-21T18:25:58.368Z,72.10
2023-09-21T18:28:44.176Z,71.90
2023-09-21T18:31:30.212Z,72.50
2023-09-21T18:34:18.005Z,72.20
2023-09-21T18:37:03.794Z,71.90
2023-09-21T18:39:49.786Z,72.20
2023-09-21T18:42:36.174Z,72.60
2023-09-21T18:45:22.349Z,72.00
2023-09-21T18:48:08.632Z,72.30
2023-09-21T18:50:54.772Z,71.80
2023-09-21T18:53:41.520Z,71.90
2023-09-21T18:56:27.453Z,71.90
2023-09-21T18:59:13.138Z,71.90
2023-09-21T19:01:58.970Z,72.20
2023-09-21T19:04:49.227Z,72.40
2023-09-21T19:07:35.945Z,72.20
2023-09-21T19:10:22.879Z,72.50
2023-09-21T19:13:09.042Z,72.40
2023-09-21T19:15:54.717Z,72.20
2023-09-21T19:18:41.214Z,72.30
2023-09-21T19:21:27.517Z,72.30
2023-09-21T19:24:13.181Z,73.00
2023-09-21T19:26:58.838Z,72.40
2023-09-21T19:29:44.479Z,72.80
2023-09-21T19:32:30.891Z,72.90
2023-09-21T19:35:16.636Z,73.50
2023-09-21T19:38:05.458Z,72.70
2023-09-21T19:40:51.730Z,72.60
2023-09-21T19:43:37.555Z,72.80
2023-09-21T19:46:23.817Z,73.00
2023-09-21T19:49:09.553Z,73.70
2023-09-21T19:51:56.272Z,73.80
2023-09-21T19:54:41.855Z,73.70
2023-09-21T19:57:27.645Z,73.40
2023-09-21T20:00:13.773Z,73.80
2023-09-21T20:02:59.922Z,73.70
2023-09-21T20:05:46.448Z,73.50
2023-09-21T20:08:32.277Z,73.20
2023-09-21T20:11:17.797Z,73.20
2023-09-21T20:14:03.410Z,73.40
2023-09-21T20:16:49.050Z,73.40
2023-09-21T20:19:34.587Z,73.00
2023-09-21T20:22:20.201Z,73.80
2023-09-21T20:25:06.089Z,73.90
2023-09-21T20:27:52.053Z,73.30
2023-09-21T20:30:38.168Z,73.20
2023-09-21T20:33:24.551Z,73.10
2023-09-21T20:36:12.780Z,73.70
2023-09-21T20:38:58.647Z,72.70
2023-09-21T20:41:44.622Z,72.70
2023-09-21T20:44:30.441Z,73.10
2023-09-21T20:47:15.963Z,72.90
2023-09-21T20:50:04.697Z,72.70
2023-09-21T20:52:50.539Z,72.70
2023-09-21T20:55:36.355Z,72.70
2023-09-21T20:58:22.691Z,72.70
2023-09-21T21:01:08.417Z,72.80
2023-09-21T21:03:54.320Z,72.90
2023-09-21T21:06:40.419Z,72.60
2023-09-21T21:09:26.854Z,72.60
2023-09-21T21:12:12.815Z,73.00
2023-09-21T21:15:00.261Z,73.00
2023-09-21T21:17:47.556Z,72.80
2023-09-21T21:20:34.343Z,72.60
2023-09-21T21:23:19.906Z,72.90
2023-09-21T21:26:05.731Z,72.60
2023-09-21T21:28:51.723Z,73.10
2023-09-21T21:31:37.502Z,73.00
2023-09-21T21:34:23.189Z,73.10
2023-09-21T21:37:08.884Z,73.00
2023-09-21T21:39:54.541Z,72.70
2023-09-21T21:42:43.396Z,73.50
2023-09-21T21:45:29.597Z,72.90
2023-09-21T21:48:20.551Z,72.60
2023-09-21T21:51:06.305Z,72.10
2023-09-21T21:53:52.067Z,72.90
2023-09-21T21:56:38.172Z,72.00
2023-09-21T21:59:24.019Z,71.70
2023-09-21T22:02:09.841Z,71.90
2023-09-21T22:04:55.738Z,71.70
2023-09-21T22:07:41.442Z,72.10
2023-09-21T22:10:27.721Z,71.80
2023-09-21T22:13:13.605Z,72.20
2023-09-21T22:16:02.709Z,72.10
2023-09-21T22:18:52.807Z,72.30
2023-09-21T22:21:39.084Z,73.20
2023-09-21T22:24:24.857Z,73.00
2023-09-21T22:27:10.481Z,72.80
2023-09-21T22:29:56.260Z,72.30
2023-09-21T22:32:44.669Z,72.20
2023-09-21T22:35:30.231Z,72.20
2023-09-21T22:38:15.839Z,71.90
2023-09-21T22:41:01.705Z,72.20
2023-09-21T22:43:50.468Z,72.00
2023-09-21T22:46:36.494Z,72.00
2023-09-21T22:49:25.893Z,72.00
2023-09-21T22:52:11.618Z,71.80
2023-09-21T22:55:00.177Z,71.80
2023-09-21T22:57:48.740Z,71.90
2023-09-21T23:00:34.542Z,71.90
2023-09-21T23:03:20.389Z,71.60
2023-09-21T23:06:12.526Z,71.90
2023-09-21T23:08:59.531Z,71.50
2023-09-21T23:11:47.131Z,71.70
2023-09-21T23:14:50.846Z,71.80
2023-09-21T23:17:38.835Z,71.40
2023-09-21T23:20:24.484Z,71.90
2023-09-21T23:23:10.475Z,71.80
2023-09-21T23:25:56.131Z,71.70
2023-09-21T23:28:42.034Z,71.50
2023-09-21T23:31:27.796Z,71.90
2023-09-21T23:34:14.040Z,71.80
2023-09-21T23:37:03.045Z,71.90
2023-09-21T23:39:48.663Z,71.70
2023-09-21T23:42:40.480Z,72.30
2023-09-21T23:45:26.351Z,71.50
2023-09-21T23:48:12.309Z,71.50
2023-09-21T23:50:57.961Z,71.00
2023-09-21T23:53:43.735Z,71.00
2023-09-21T23:56:30.707Z,71.40
2023-09-21T23:59:19.324Z,71.00
